Browerville, Minnesota
Current Conditions -  °F | °C
As of 4:06 AM on Friday 28 Nov 2014 (Local Time) from K14Y Reporting Station
Overcast Overcast  
Wind Chill: -5°   Ceiling: 7000
Heat Index:   Visibility: 10mi
Dew Point:   Wind: 7mph
Humidity: 85%   Direction: 120°ESE
Pressure: 30.01"   Gusts: NA
Location:  46.09°N, 94.87°W
Report Text: K14Y 281006Z AUTO 12006KT 10SM OVC070 M14/M16 A3001 RMK AO2
Loading
Personal Weather Stations






























Interactive Weather Map New forecast layout! Learn more

10-Day Weather Forecast

Advertisements
Track Severe Weather on mobile